Metar z połowy godziny Komunikat METAR ze strony awiacja.imgw.pl Metar G00 EPLL METAR EPLL 230730Z 26014KT 9999 FEW019 06/01 Q1020 =